sensor_id;sensor_type;location;lat;lon;timestamp;P1;durP1;ratioP1;P2;durP2;ratioP2
48161;SDS011;33950;48.154;16.316;2022-09-20T00:02:22;4.43;;;1.60;;
48161;SDS011;33950;48.154;16.316;2022-09-20T00:05:08;7.47;;;1.48;;
48161;SDS011;33950;48.154;16.316;2022-09-20T00:07:54;5.75;;;1.65;;
48161;SDS011;33950;48.154;16.316;2022-09-20T00:10:42;6.28;;;1.40;;
48161;SDS011;33950;48.154;16.316;2022-09-20T00:13:28;3.08;;;1.38;;
48161;SDS011;33950;48.154;16.316;2022-09-20T00:16:16;6.90;;;1.63;;
48161;SDS011;33950;48.154;16.316;2022-09-20T00:19:04;5.40;;;1.58;;
48161;SDS011;33950;48.154;16.316;2022-09-20T00:21:51;5.07;;;1.55;;
48161;SDS011;33950;48.154;16.316;2022-09-20T00:24:37;2.38;;;1.40;;
48161;SDS011;33950;48.154;16.316;2022-09-20T00:27:24;3.00;;;1.42;;
48161;SDS011;33950;48.154;16.316;2022-09-20T00:30:12;6.18;;;2.20;;
48161;SDS011;33950;48.154;16.316;2022-09-20T00:32:58;3.00;;;1.38;;
48161;SDS011;33950;48.154;16.316;2022-09-20T00:35:45;5.65;;;1.67;;
48161;SDS011;33950;48.154;16.316;2022-09-20T00:38:31;4.10;;;1.30;;
48161;SDS011;33950;48.154;16.316;2022-09-20T00:41:17;2.08;;;1.13;;
48161;SDS011;33950;48.154;16.316;2022-09-20T00:47:29;5.97;;;1.60;;
48161;SDS011;33950;48.154;16.316;2022-09-20T00:50:28;3.35;;;1.20;;
48161;SDS011;33950;48.154;16.316;2022-09-20T00:53:19;3.65;;;1.55;;
48161;SDS011;33950;48.154;16.316;2022-09-20T00:56:09;3.60;;;1.15;;
48161;SDS011;33950;48.154;16.316;2022-09-20T00:59:01;3.58;;;1.27;;
48161;SDS011;33950;48.154;16.316;2022-09-20T01:01:54;6.40;;;1.38;;
48161;SDS011;33950;48.154;16.316;2022-09-20T01:04:44;2.47;;;1.35;;
48161;SDS011;33950;48.154;16.316;2022-09-20T01:07:32;5.25;;;1.50;;
48161;SDS011;33950;48.154;16.316;2022-09-20T01:10:18;5.45;;;1.50;;
48161;SDS011;33950;48.154;16.316;2022-09-20T01:13:05;3.15;;;1.77;;
48161;SDS011;33950;48.154;16.316;2022-09-20T01:15:51;5.15;;;1.35;;
48161;SDS011;33950;48.154;16.316;2022-09-20T01:18:38;3.70;;;1.23;;
48161;SDS011;33950;48.154;16.316;2022-09-20T01:21:29;5.55;;;1.25;;
48161;SDS011;33950;48.154;16.316;2022-09-20T01:24:17;4.53;;;0.95;;
48161;SDS011;33950;48.154;16.316;2022-09-20T01:27:10;3.97;;;1.47;;
48161;SDS011;33950;48.154;16.316;2022-09-20T01:30:06;6.18;;;1.30;;
48161;SDS011;33950;48.154;16.316;2022-09-20T01:33:00;5.45;;;1.55;;
48161;SDS011;33950;48.154;16.316;2022-09-20T01:35:55;7.30;;;1.45;;
48161;SDS011;33950;48.154;16.316;2022-09-20T01:38:48;5.25;;;1.20;;
48161;SDS011;33950;48.154;16.316;2022-09-20T01:41:43;5.78;;;1.40;;
48161;SDS011;33950;48.154;16.316;2022-09-20T01:44:34;4.18;;;1.65;;
48161;SDS011;33950;48.154;16.316;2022-09-20T01:47:29;2.30;;;1.27;;
48161;SDS011;33950;48.154;16.316;2022-09-20T01:50:23;6.15;;;1.65;;
48161;SDS011;33950;48.154;16.316;2022-09-20T02:00:00;5.53;;;1.60;;
48161;SDS011;33950;48.154;16.316;2022-09-20T02:06:35;6.85;;;1.65;;
48161;SDS011;33950;48.154;16.316;2022-09-20T02:12:54;2.80;;;1.00;;
48161;SDS011;33950;48.154;16.316;2022-09-20T02:15:59;3.95;;;1.48;;
48161;SDS011;33950;48.154;16.316;2022-09-20T02:19:02;2.13;;;1.20;;
48161;SDS011;33950;48.154;16.316;2022-09-20T02:22:13;3.40;;;1.35;;
48161;SDS011;33950;48.154;16.316;2022-09-20T02:25:16;3.00;;;1.08;;
48161;SDS011;33950;48.154;16.316;2022-09-20T02:28:17;1.20;;;1.05;;
48161;SDS011;33950;48.154;16.316;2022-09-20T02:31:12;1.58;;;0.93;;
48161;SDS011;33950;48.154;16.316;2022-09-20T02:34:09;3.33;;;1.10;;
48161;SDS011;33950;48.154;16.316;2022-09-20T02:37:20;4.75;;;1.08;;
48161;SDS011;33950;48.154;16.316;2022-09-20T02:40:26;2.25;;;1.02;;
48161;SDS011;33950;48.154;16.316;2022-09-20T02:43:25;3.25;;;1.55;;
48161;SDS011;33950;48.154;16.316;2022-09-20T02:46:19;3.50;;;1.20;;
48161;SDS011;33950;48.154;16.316;2022-09-20T02:49:13;2.25;;;1.13;;
48161;SDS011;33950;48.154;16.316;2022-09-20T02:52:09;1.70;;;1.10;;
48161;SDS011;33950;48.154;16.316;2022-09-20T02:55:04;2.15;;;1.20;;
48161;SDS011;33950;48.154;16.316;2022-09-20T02:57:59;3.13;;;1.33;;
48161;SDS011;33950;48.154;16.316;2022-09-20T03:00:56;3.55;;;1.80;;
48161;SDS011;33950;48.154;16.316;2022-09-20T03:03:49;3.28;;;1.83;;
48161;SDS011;33950;48.154;16.316;2022-09-20T03:06:45;5.53;;;1.95;;
48161;SDS011;33950;48.154;16.316;2022-09-20T03:09:40;3.25;;;2.00;;
48161;SDS011;33950;48.154;16.316;2022-09-20T03:15:26;3.45;;;1.67;;
48161;SDS011;33950;48.154;16.316;2022-09-20T03:18:19;5.80;;;2.22;;
48161;SDS011;33950;48.154;16.316;2022-09-20T03:21:22;8.20;;;2.22;;
48161;SDS011;33950;48.154;16.316;2022-09-20T03:24:21;2.85;;;2.13;;
48161;SDS011;33950;48.154;16.316;2022-09-20T03:27:19;4.78;;;2.80;;
48161;SDS011;33950;48.154;16.316;2022-09-20T03:30:18;9.05;;;2.70;;
48161;SDS011;33950;48.154;16.316;2022-09-20T03:33:18;6.13;;;2.78;;
48161;SDS011;33950;48.154;16.316;2022-09-20T03:36:16;4.95;;;2.50;;
48161;SDS011;33950;48.154;16.316;2022-09-20T03:39:14;3.47;;;2.30;;
48161;SDS011;33950;48.154;16.316;2022-09-20T03:42:14;8.02;;;3.05;;
48161;SDS011;33950;48.154;16.316;2022-09-20T03:45:14;3.58;;;2.50;;
48161;SDS011;33950;48.154;16.316;2022-09-20T03:48:28;5.50;;;2.25;;
48161;SDS011;33950;48.154;16.316;2022-09-20T03:51:27;4.65;;;2.40;;
48161;SDS011;33950;48.154;16.316;2022-09-20T03:54:17;5.55;;;2.28;;
48161;SDS011;33950;48.154;16.316;2022-09-20T04:00:59;3.35;;;2.00;;
48161;SDS011;33950;48.154;16.316;2022-09-20T04:03:55;6.35;;;2.13;;
48161;SDS011;33950;48.154;16.316;2022-09-20T04:06:55;4.30;;;2.28;;
48161;SDS011;33950;48.154;16.316;2022-09-20T04:10:00;4.68;;;2.35;;
48161;SDS011;33950;48.154;16.316;2022-09-20T04:13:14;6.20;;;2.85;;
48161;SDS011;33950;48.154;16.316;2022-09-20T04:16:17;7.95;;;2.40;;
48161;SDS011;33950;48.154;16.316;2022-09-20T04:19:16;5.60;;;2.33;;
48161;SDS011;33950;48.154;16.316;2022-09-20T04:22:08;5.43;;;2.75;;
48161;SDS011;33950;48.154;16.316;2022-09-20T04:24:55;7.53;;;2.85;;
48161;SDS011;33950;48.154;16.316;2022-09-20T04:27:48;4.53;;;2.35;;
48161;SDS011;33950;48.154;16.316;2022-09-20T04:30:36;3.22;;;2.30;;
48161;SDS011;33950;48.154;16.316;2022-09-20T04:36:22;3.38;;;2.15;;
48161;SDS011;33950;48.154;16.316;2022-09-20T04:39:18;3.17;;;1.70;;
48161;SDS011;33950;48.154;16.316;2022-09-20T04:49:08;2.67;;;1.70;;
48161;SDS011;33950;48.154;16.316;2022-09-20T04:52:24;3.35;;;1.60;;
48161;SDS011;33950;48.154;16.316;2022-09-20T04:55:48;2.40;;;1.47;;
48161;SDS011;33950;48.154;16.316;2022-09-20T05:08:53;3.25;;;1.60;;
48161;SDS011;33950;48.154;16.316;2022-09-20T05:11:54;2.30;;;1.85;;
48161;SDS011;33950;48.154;16.316;2022-09-20T05:24:54;5.65;;;1.73;;
48161;SDS011;33950;48.154;16.316;2022-09-20T05:28:11;4.80;;;1.60;;
48161;SDS011;33950;48.154;16.316;2022-09-20T05:31:04;4.32;;;1.73;;
48161;SDS011;33950;48.154;16.316;2022-09-20T05:33:56;3.70;;;1.63;;
48161;SDS011;33950;48.154;16.316;2022-09-20T05:36:52;2.05;;;1.50;;
48161;SDS011;33950;48.154;16.316;2022-09-20T05:39:48;5.07;;;1.80;;
48161;SDS011;33950;48.154;16.316;2022-09-20T05:42:39;7.07;;;1.88;;
48161;SDS011;33950;48.154;16.316;2022-09-20T05:45:37;2.10;;;1.50;;
48161;SDS011;33950;48.154;16.316;2022-09-20T05:48:36;4.68;;;2.10;;
48161;SDS011;33950;48.154;16.316;2022-09-20T05:51:39;3.85;;;1.83;;
48161;SDS011;33950;48.154;16.316;2022-09-20T05:54:46;4.43;;;1.83;;
48161;SDS011;33950;48.154;16.316;2022-09-20T05:57:58;2.53;;;2.00;;
48161;SDS011;33950;48.154;16.316;2022-09-20T06:00:55;6.53;;;1.70;;
48161;SDS011;33950;48.154;16.316;2022-09-20T06:03:46;7.47;;;2.28;;
48161;SDS011;33950;48.154;16.316;2022-09-20T06:06:43;3.78;;;2.30;;
48161;SDS011;33950;48.154;16.316;2022-09-20T06:09:42;3.53;;;1.92;;
48161;SDS011;33950;48.154;16.316;2022-09-20T06:12:46;13.48;;;2.38;;
48161;SDS011;33950;48.154;16.316;2022-09-20T06:15:41;8.98;;;2.38;;
48161;SDS011;33950;48.154;16.316;2022-09-20T06:18:31;14.82;;;2.60;;
48161;SDS011;33950;48.154;16.316;2022-09-20T06:21:24;8.48;;;2.75;;
48161;SDS011;33950;48.154;16.316;2022-09-20T06:24:26;7.68;;;3.35;;
48161;SDS011;33950;48.154;16.316;2022-09-20T06:27:21;9.55;;;2.67;;
48161;SDS011;33950;48.154;16.316;2022-09-20T06:30:12;17.63;;;3.20;;
48161;SDS011;33950;48.154;16.316;2022-09-20T06:33:09;9.45;;;3.25;;
48161;SDS011;33950;48.154;16.316;2022-09-20T06:36:01;11.73;;;2.55;;
48161;SDS011;33950;48.154;16.316;2022-09-20T06:39:11;3.97;;;2.25;;
48161;SDS011;33950;48.154;16.316;2022-09-20T06:42:23;8.48;;;3.00;;
48161;SDS011;33950;48.154;16.316;2022-09-20T06:45:10;10.93;;;2.13;;
48161;SDS011;33950;48.154;16.316;2022-09-20T06:47:56;15.13;;;2.90;;
48161;SDS011;33950;48.154;16.316;2022-09-20T06:50:42;15.95;;;3.42;;
48161;SDS011;33950;48.154;16.316;2022-09-20T06:53:30;10.80;;;2.20;;
48161;SDS011;33950;48.154;16.316;2022-09-20T06:56:17;4.28;;;2.55;;
48161;SDS011;33950;48.154;16.316;2022-09-20T06:59:08;5.85;;;2.55;;
48161;SDS011;33950;48.154;16.316;2022-09-20T07:01:55;2.67;;;2.10;;
48161;SDS011;33950;48.154;16.316;2022-09-20T07:04:41;7.07;;;2.83;;
48161;SDS011;33950;48.154;16.316;2022-09-20T07:07:28;3.20;;;1.83;;
48161;SDS011;33950;48.154;16.316;2022-09-20T07:10:15;2.67;;;1.77;;
48161;SDS011;33950;48.154;16.316;2022-09-20T07:13:01;6.30;;;2.53;;
48161;SDS011;33950;48.154;16.316;2022-09-20T07:15:48;5.03;;;2.75;;
48161;SDS011;33950;48.154;16.316;2022-09-20T07:18:35;5.80;;;2.33;;
48161;SDS011;33950;48.154;16.316;2022-09-20T07:21:21;4.75;;;2.65;;
48161;SDS011;33950;48.154;16.316;2022-09-20T07:24:08;11.02;;;2.20;;
48161;SDS011;33950;48.154;16.316;2022-09-20T07:26:54;4.55;;;2.35;;
48161;SDS011;33950;48.154;16.316;2022-09-20T07:29:41;3.55;;;1.88;;
48161;SDS011;33950;48.154;16.316;2022-09-20T07:32:29;4.03;;;1.83;;
48161;SDS011;33950;48.154;16.316;2022-09-20T07:35:15;3.25;;;1.92;;
48161;SDS011;33950;48.154;16.316;2022-09-20T07:38:01;4.35;;;2.25;;
48161;SDS011;33950;48.154;16.316;2022-09-20T07:40:52;5.80;;;2.72;;
48161;SDS011;33950;48.154;16.316;2022-09-20T07:43:40;5.30;;;3.13;;
48161;SDS011;33950;48.154;16.316;2022-09-20T07:46:26;5.88;;;2.60;;
48161;SDS011;33950;48.154;16.316;2022-09-20T07:49:13;3.63;;;2.28;;
48161;SDS011;33950;48.154;16.316;2022-09-20T07:52:00;5.45;;;2.80;;
48161;SDS011;33950;48.154;16.316;2022-09-20T07:54:46;8.30;;;2.60;;
48161;SDS011;33950;48.154;16.316;2022-09-20T07:57:34;5.50;;;2.60;;
48161;SDS011;33950;48.154;16.316;2022-09-20T08:00:21;2.88;;;2.58;;
48161;SDS011;33950;48.154;16.316;2022-09-20T08:03:07;9.07;;;2.60;;
48161;SDS011;33950;48.154;16.316;2022-09-20T08:05:58;5.38;;;2.25;;
48161;SDS011;33950;48.154;16.316;2022-09-20T08:08:46;5.53;;;2.40;;
48161;SDS011;33950;48.154;16.316;2022-09-20T08:11:32;12.10;;;2.95;;
48161;SDS011;33950;48.154;16.316;2022-09-20T08:14:20;20.42;;;3.25;;
48161;SDS011;33950;48.154;16.316;2022-09-20T08:17:06;9.85;;;2.70;;
48161;SDS011;33950;48.154;16.316;2022-09-20T08:19:54;11.65;;;2.70;;
48161;SDS011;33950;48.154;16.316;2022-09-20T08:22:42;9.27;;;2.55;;
48161;SDS011;33950;48.154;16.316;2022-09-20T08:25:29;4.65;;;2.25;;
48161;SDS011;33950;48.154;16.316;2022-09-20T08:28:15;6.03;;;1.98;;
48161;SDS011;33950;48.154;16.316;2022-09-20T08:31:01;3.67;;;1.75;;
48161;SDS011;33950;48.154;16.316;2022-09-20T08:33:48;3.30;;;1.73;;
48161;SDS011;33950;48.154;16.316;2022-09-20T08:36:37;8.50;;;2.30;;
48161;SDS011;33950;48.154;16.316;2022-09-20T08:39:26;7.53;;;2.35;;
48161;SDS011;33950;48.154;16.316;2022-09-20T08:42:13;1.98;;;1.40;;
48161;SDS011;33950;48.154;16.316;2022-09-20T08:45:10;11.02;;;2.17;;
48161;SDS011;33950;48.154;16.316;2022-09-20T08:48:00;4.80;;;1.92;;
48161;SDS011;33950;48.154;16.316;2022-09-20T08:50:50;2.50;;;1.40;;
48161;SDS011;33950;48.154;16.316;2022-09-20T08:53:36;3.15;;;1.63;;
48161;SDS011;33950;48.154;16.316;2022-09-20T08:56:29;2.55;;;1.38;;
48161;SDS011;33950;48.154;16.316;2022-09-20T08:59:19;5.47;;;1.83;;
48161;SDS011;33950;48.154;16.316;2022-09-20T09:02:08;3.15;;;1.00;;
48161;SDS011;33950;48.154;16.316;2022-09-20T09:04:59;3.75;;;1.65;;
48161;SDS011;33950;48.154;16.316;2022-09-20T09:07:47;11.55;;;2.03;;
48161;SDS011;33950;48.154;16.316;2022-09-20T09:10:34;8.23;;;1.70;;
48161;SDS011;33950;48.154;16.316;2022-09-20T09:13:25;2.67;;;1.05;;
48161;SDS011;33950;48.154;16.316;2022-09-20T09:16:16;3.63;;;1.55;;
48161;SDS011;33950;48.154;16.316;2022-09-20T09:22:16;2.88;;;1.50;;
48161;SDS011;33950;48.154;16.316;2022-09-20T09:25:05;3.70;;;1.30;;
48161;SDS011;33950;48.154;16.316;2022-09-20T09:27:54;2.75;;;1.10;;
48161;SDS011;33950;48.154;16.316;2022-09-20T09:30:43;1.65;;;1.10;;
48161;SDS011;33950;48.154;16.316;2022-09-20T09:33:33;1.73;;;1.13;;
48161;SDS011;33950;48.154;16.316;2022-09-20T09:36:20;9.07;;;1.73;;
48161;SDS011;33950;48.154;16.316;2022-09-20T09:39:12;10.88;;;1.60;;
48161;SDS011;33950;48.154;16.316;2022-09-20T09:42:17;4.75;;;1.98;;
48161;SDS011;33950;48.154;16.316;2022-09-20T09:45:11;4.03;;;1.58;;
48161;SDS011;33950;48.154;16.316;2022-09-20T09:48:17;7.28;;;2.20;;
48161;SDS011;33950;48.154;16.316;2022-09-20T09:51:06;4.88;;;1.83;;
48161;SDS011;33950;48.154;16.316;2022-09-20T09:53:54;3.53;;;1.30;;
48161;SDS011;33950;48.154;16.316;2022-09-20T09:56:44;4.32;;;1.00;;
48161;SDS011;33950;48.154;16.316;2022-09-20T09:59:46;2.08;;;1.08;;
48161;SDS011;33950;48.154;16.316;2022-09-20T10:02:57;11.32;;;1.50;;
48161;SDS011;33950;48.154;16.316;2022-09-20T10:06:04;5.68;;;1.20;;
48161;SDS011;33950;48.154;16.316;2022-09-20T10:09:00;2.28;;;1.10;;
48161;SDS011;33950;48.154;16.316;2022-09-20T10:12:06;3.63;;;1.42;;
48161;SDS011;33950;48.154;16.316;2022-09-20T10:15:09;2.45;;;1.10;;
48161;SDS011;33950;48.154;16.316;2022-09-20T10:18:10;3.35;;;1.75;;
48161;SDS011;33950;48.154;16.316;2022-09-20T10:21:17;1.88;;;1.20;;
48161;SDS011;33950;48.154;16.316;2022-09-20T10:24:16;5.22;;;1.17;;
48161;SDS011;33950;48.154;16.316;2022-09-20T10:27:17;5.30;;;1.20;;
48161;SDS011;33950;48.154;16.316;2022-09-20T10:30:16;2.60;;;1.13;;
48161;SDS011;33950;48.154;16.316;2022-09-20T10:33:09;4.93;;;1.90;;
48161;SDS011;33950;48.154;16.316;2022-09-20T10:36:09;2.08;;;1.20;;
48161;SDS011;33950;48.154;16.316;2022-09-20T10:39:03;9.48;;;1.50;;
48161;SDS011;33950;48.154;16.316;2022-09-20T10:41:57;3.22;;;0.73;;
48161;SDS011;33950;48.154;16.316;2022-09-20T10:45:16;2.85;;;1.27;;
48161;SDS011;33950;48.154;16.316;2022-09-20T10:48:04;3.90;;;0.55;;
48161;SDS011;33950;48.154;16.316;2022-09-20T10:50:57;4.63;;;0.75;;
48161;SDS011;33950;48.154;16.316;2022-09-20T10:53:47;2.50;;;0.75;;
48161;SDS011;33950;48.154;16.316;2022-09-20T10:56:38;5.72;;;0.85;;
48161;SDS011;33950;48.154;16.316;2022-09-20T10:59:36;8.15;;;1.63;;
48161;SDS011;33950;48.154;16.316;2022-09-20T11:02:37;6.95;;;1.02;;
48161;SDS011;33950;48.154;16.316;2022-09-20T11:05:32;1.55;;;0.82;;
48161;SDS011;33950;48.154;16.316;2022-09-20T11:08:28;5.90;;;0.82;;
48161;SDS011;33950;48.154;16.316;2022-09-20T11:11:18;7.40;;;1.15;;
48161;SDS011;33950;48.154;16.316;2022-09-20T11:14:10;8.02;;;0.98;;
48161;SDS011;33950;48.154;16.316;2022-09-20T11:17:00;4.88;;;2.22;;
48161;SDS011;33950;48.154;16.316;2022-09-20T11:19:54;6.80;;;1.67;;
48161;SDS011;33950;48.154;16.316;2022-09-20T11:22:45;4.72;;;1.05;;
48161;SDS011;33950;48.154;16.316;2022-09-20T11:25:35;14.27;;;1.55;;
48161;SDS011;33950;48.154;16.316;2022-09-20T11:28:26;1.85;;;0.63;;
48161;SDS011;33950;48.154;16.316;2022-09-20T11:31:20;5.20;;;1.08;;
48161;SDS011;33950;48.154;16.316;2022-09-20T11:34:13;4.35;;;1.15;;
48161;SDS011;33950;48.154;16.316;2022-09-20T11:37:04;6.70;;;0.95;;
48161;SDS011;33950;48.154;16.316;2022-09-20T11:39:52;2.42;;;0.80;;
48161;SDS011;33950;48.154;16.316;2022-09-20T11:42:39;4.40;;;0.63;;
48161;SDS011;33950;48.154;16.316;2022-09-20T11:45:26;3.30;;;0.77;;
48161;SDS011;33950;48.154;16.316;2022-09-20T11:48:16;2.33;;;0.50;;
48161;SDS011;33950;48.154;16.316;2022-09-20T11:51:14;1.88;;;0.85;;
48161;SDS011;33950;48.154;16.316;2022-09-20T11:54:19;1.42;;;0.75;;
48161;SDS011;33950;48.154;16.316;2022-09-20T11:57:30;2.92;;;0.82;;
48161;SDS011;33950;48.154;16.316;2022-09-20T12:00:17;2.65;;;1.00;;
48161;SDS011;33950;48.154;16.316;2022-09-20T12:03:22;4.25;;;1.20;;
48161;SDS011;33950;48.154;16.316;2022-09-20T12:06:20;5.03;;;1.00;;
48161;SDS011;33950;48.154;16.316;2022-09-20T12:09:21;3.72;;;1.25;;
48161;SDS011;33950;48.154;16.316;2022-09-20T12:12:13;8.82;;;1.08;;
48161;SDS011;33950;48.154;16.316;2022-09-20T12:15:05;3.90;;;1.00;;
48161;SDS011;33950;48.154;16.316;2022-09-20T12:18:09;3.10;;;1.20;;
48161;SDS011;33950;48.154;16.316;2022-09-20T12:21:15;1.73;;;1.08;;
48161;SDS011;33950;48.154;16.316;2022-09-20T12:27:19;8.57;;;1.13;;
48161;SDS011;33950;48.154;16.316;2022-09-20T12:30:14;2.03;;;0.80;;
48161;SDS011;33950;48.154;16.316;2022-09-20T12:33:02;1.45;;;0.75;;
48161;SDS011;33950;48.154;16.316;2022-09-20T12:35:52;14.07;;;1.00;;
48161;SDS011;33950;48.154;16.316;2022-09-20T12:38:46;15.15;;;1.40;;
48161;SDS011;33950;48.154;16.316;2022-09-20T12:41:45;2.42;;;0.90;;
48161;SDS011;33950;48.154;16.316;2022-09-20T12:44:34;1.20;;;0.85;;
48161;SDS011;33950;48.154;16.316;2022-09-20T12:47:22;5.05;;;0.98;;
48161;SDS011;33950;48.154;16.316;2022-09-20T12:50:11;5.03;;;0.77;;
48161;SDS011;33950;48.154;16.316;2022-09-20T12:53:17;2.30;;;0.68;;
48161;SDS011;33950;48.154;16.316;2022-09-20T12:56:05;8.00;;;1.38;;
48161;SDS011;33950;48.154;16.316;2022-09-20T12:58:52;6.70;;;1.35;;
48161;SDS011;33950;48.154;16.316;2022-09-20T13:01:40;12.13;;;1.15;;
48161;SDS011;33950;48.154;16.316;2022-09-20T13:07:42;4.40;;;1.13;;
48161;SDS011;33950;48.154;16.316;2022-09-20T13:10:33;11.38;;;1.10;;
48161;SDS011;33950;48.154;16.316;2022-09-20T13:13:34;2.92;;;0.93;;
48161;SDS011;33950;48.154;16.316;2022-09-20T13:16:25;1.33;;;0.52;;
48161;SDS011;33950;48.154;16.316;2022-09-20T13:19:16;2.72;;;0.80;;
48161;SDS011;33950;48.154;16.316;2022-09-20T13:22:04;5.25;;;1.00;;
48161;SDS011;33950;48.154;16.316;2022-09-20T13:24:56;1.50;;;0.85;;
48161;SDS011;33950;48.154;16.316;2022-09-20T13:27:46;5.88;;;0.80;;
48161;SDS011;33950;48.154;16.316;2022-09-20T13:30:36;4.82;;;0.70;;
48161;SDS011;33950;48.154;16.316;2022-09-20T13:33:24;2.70;;;0.90;;
48161;SDS011;33950;48.154;16.316;2022-09-20T13:36:11;2.00;;;0.90;;
48161;SDS011;33950;48.154;16.316;2022-09-20T13:38:57;3.28;;;0.60;;
48161;SDS011;33950;48.154;16.316;2022-09-20T13:41:44;3.28;;;0.45;;
48161;SDS011;33950;48.154;16.316;2022-09-20T13:44:32;5.47;;;0.73;;
48161;SDS011;33950;48.154;16.316;2022-09-20T13:47:24;1.67;;;0.63;;
48161;SDS011;33950;48.154;16.316;2022-09-20T13:50:15;2.35;;;0.60;;
48161;SDS011;33950;48.154;16.316;2022-09-20T13:53:12;1.63;;;0.55;;
48161;SDS011;33950;48.154;16.316;2022-09-20T13:56:00;3.72;;;0.60;;
48161;SDS011;33950;48.154;16.316;2022-09-20T13:58:53;3.17;;;0.70;;
48161;SDS011;33950;48.154;16.316;2022-09-20T14:01:43;1.42;;;0.38;;
48161;SDS011;33950;48.154;16.316;2022-09-20T14:04:34;3.80;;;0.77;;
48161;SDS011;33950;48.154;16.316;2022-09-20T14:07:23;1.67;;;0.80;;
48161;SDS011;33950;48.154;16.316;2022-09-20T14:10:25;1.75;;;0.60;;
48161;SDS011;33950;48.154;16.316;2022-09-20T14:21:36;4.95;;;0.50;;
48161;SDS011;33950;48.154;16.316;2022-09-20T14:24:27;1.48;;;0.40;;
48161;SDS011;33950;48.154;16.316;2022-09-20T14:27:17;2.90;;;0.65;;
48161;SDS011;33950;48.154;16.316;2022-09-20T14:30:05;0.70;;;0.20;;
48161;SDS011;33950;48.154;16.316;2022-09-20T14:35:45;1.85;;;0.28;;
48161;SDS011;33950;48.154;16.316;2022-09-20T14:38:34;1.50;;;0.30;;
48161;SDS011;33950;48.154;16.316;2022-09-20T14:41:25;2.50;;;0.30;;
48161;SDS011;33950;48.154;16.316;2022-09-20T14:44:19;1.50;;;0.70;;
48161;SDS011;33950;48.154;16.316;2022-09-20T14:47:22;4.43;;;1.00;;
48161;SDS011;33950;48.154;16.316;2022-09-20T14:50:21;1.73;;;0.30;;
48161;SDS011;33950;48.154;16.316;2022-09-20T14:53:22;3.65;;;0.50;;
48161;SDS011;33950;48.154;16.316;2022-09-20T14:56:13;1.20;;;0.40;;
48161;SDS011;33950;48.154;16.316;2022-09-20T14:59:05;2.10;;;0.30;;
48161;SDS011;33950;48.154;16.316;2022-09-20T15:02:10;3.08;;;0.38;;
48161;SDS011;33950;48.154;16.316;2022-09-20T15:04:58;3.85;;;0.40;;
48161;SDS011;33950;48.154;16.316;2022-09-20T15:07:45;2.60;;;0.43;;
48161;SDS011;33950;48.154;16.316;2022-09-20T15:10:31;1.35;;;0.65;;
48161;SDS011;33950;48.154;16.316;2022-09-20T15:13:19;1.02;;;0.43;;
48161;SDS011;33950;48.154;16.316;2022-09-20T15:16:05;1.30;;;0.50;;
48161;SDS011;33950;48.154;16.316;2022-09-20T15:18:52;3.50;;;0.60;;
48161;SDS011;33950;48.154;16.316;2022-09-20T15:21:39;8.23;;;1.02;;
48161;SDS011;33950;48.154;16.316;2022-09-20T15:24:25;2.15;;;0.63;;
48161;SDS011;33950;48.154;16.316;2022-09-20T15:27:11;4.72;;;0.55;;
48161;SDS011;33950;48.154;16.316;2022-09-20T15:29:59;3.35;;;0.55;;
48161;SDS011;33950;48.154;16.316;2022-09-20T15:32:45;1.00;;;0.40;;
48161;SDS011;33950;48.154;16.316;2022-09-20T15:35:32;1.67;;;0.52;;
48161;SDS011;33950;48.154;16.316;2022-09-20T15:38:20;3.45;;;1.02;;
48161;SDS011;33950;48.154;16.316;2022-09-20T15:41:11;1.00;;;0.40;;
48161;SDS011;33950;48.154;16.316;2022-09-20T15:43:57;1.95;;;0.40;;
48161;SDS011;33950;48.154;16.316;2022-09-20T15:46:44;2.42;;;0.50;;
48161;SDS011;33950;48.154;16.316;2022-09-20T15:49:32;2.00;;;0.43;;
48161;SDS011;33950;48.154;16.316;2022-09-20T15:52:18;1.15;;;0.50;;
48161;SDS011;33950;48.154;16.316;2022-09-20T15:55:09;1.08;;;0.57;;
48161;SDS011;33950;48.154;16.316;2022-09-20T15:57:56;1.08;;;0.70;;
48161;SDS011;33950;48.154;16.316;2022-09-20T16:00:42;1.25;;;0.60;;
48161;SDS011;33950;48.154;16.316;2022-09-20T16:03:31;1.85;;;0.60;;
48161;SDS011;33950;48.154;16.316;2022-09-20T16:06:18;1.33;;;0.77;;
48161;SDS011;33950;48.154;16.316;2022-09-20T16:09:05;1.05;;;0.70;;
48161;SDS011;33950;48.154;16.316;2022-09-20T16:11:52;2.22;;;0.77;;
48161;SDS011;33950;48.154;16.316;2022-09-20T16:14:43;0.68;;;0.40;;
48161;SDS011;33950;48.154;16.316;2022-09-20T16:17:29;0.70;;;0.60;;
48161;SDS011;33950;48.154;16.316;2022-09-20T16:20:34;0.30;;;0.30;;
48161;SDS011;33950;48.154;16.316;2022-09-20T16:23:20;1.13;;;0.60;;
48161;SDS011;33950;48.154;16.316;2022-09-20T16:26:07;1.60;;;0.70;;
48161;SDS011;33950;48.154;16.316;2022-09-20T16:28:57;1.00;;;0.60;;
48161;SDS011;33950;48.154;16.316;2022-09-20T16:31:43;5.53;;;0.65;;
48161;SDS011;33950;48.154;16.316;2022-09-20T16:34:34;2.53;;;0.90;;
48161;SDS011;33950;48.154;16.316;2022-09-20T16:37:22;2.67;;;0.73;;
48161;SDS011;33950;48.154;16.316;2022-09-20T16:40:09;3.28;;;0.85;;
48161;SDS011;33950;48.154;16.316;2022-09-20T16:42:55;2.42;;;0.80;;
48161;SDS011;33950;48.154;16.316;2022-09-20T16:45:42;7.38;;;1.55;;
48161;SDS011;33950;48.154;16.316;2022-09-20T16:48:29;1.23;;;0.93;;
48161;SDS011;33950;48.154;16.316;2022-09-20T16:51:16;0.88;;;0.75;;
48161;SDS011;33950;48.154;16.316;2022-09-20T16:54:04;2.63;;;0.70;;
48161;SDS011;33950;48.154;16.316;2022-09-20T16:56:52;1.35;;;0.60;;
48161;SDS011;33950;48.154;16.316;2022-09-20T16:59:41;4.18;;;0.77;;
48161;SDS011;33950;48.154;16.316;2022-09-20T17:02:30;2.90;;;0.85;;
48161;SDS011;33950;48.154;16.316;2022-09-20T17:05:17;1.13;;;0.80;;
48161;SDS011;33950;48.154;16.316;2022-09-20T17:08:03;2.03;;;0.90;;
48161;SDS011;33950;48.154;16.316;2022-09-20T17:10:50;3.97;;;1.17;;
48161;SDS011;33950;48.154;16.316;2022-09-20T17:13:37;1.27;;;0.80;;
48161;SDS011;33950;48.154;16.316;2022-09-20T17:16:24;5.30;;;1.10;;
48161;SDS011;33950;48.154;16.316;2022-09-20T17:19:12;6.03;;;1.60;;
48161;SDS011;33950;48.154;16.316;2022-09-20T17:22:00;2.55;;;1.20;;
48161;SDS011;33950;48.154;16.316;2022-09-20T17:24:47;4.97;;;1.58;;
48161;SDS011;33950;48.154;16.316;2022-09-20T17:27:35;7.50;;;2.40;;
48161;SDS011;33950;48.154;16.316;2022-09-20T17:30:24;5.72;;;1.95;;
48161;SDS011;33950;48.154;16.316;2022-09-20T17:33:10;3.00;;;1.60;;
48161;SDS011;33950;48.154;16.316;2022-09-20T17:35:57;7.03;;;1.65;;
48161;SDS011;33950;48.154;16.316;2022-09-20T17:38:46;4.00;;;1.35;;
48161;SDS011;33950;48.154;16.316;2022-09-20T17:41:37;3.40;;;1.90;;
48161;SDS011;33950;48.154;16.316;2022-09-20T17:44:25;4.72;;;1.73;;
48161;SDS011;33950;48.154;16.316;2022-09-20T17:47:12;5.03;;;1.67;;
48161;SDS011;33950;48.154;16.316;2022-09-20T17:49:58;2.85;;;1.27;;
48161;SDS011;33950;48.154;16.316;2022-09-20T17:52:45;5.38;;;1.40;;
48161;SDS011;33950;48.154;16.316;2022-09-20T17:55:31;3.55;;;1.80;;
48161;SDS011;33950;48.154;16.316;2022-09-20T17:58:18;2.80;;;1.10;;
48161;SDS011;33950;48.154;16.316;2022-09-20T18:01:07;2.40;;;1.52;;
48161;SDS011;33950;48.154;16.316;2022-09-20T18:03:56;7.95;;;1.25;;
48161;SDS011;33950;48.154;16.316;2022-09-20T18:06:44;3.80;;;1.50;;
48161;SDS011;33950;48.154;16.316;2022-09-20T18:09:31;3.88;;;1.02;;
48161;SDS011;33950;48.154;16.316;2022-09-20T18:12:17;2.35;;;1.05;;
48161;SDS011;33950;48.154;16.316;2022-09-20T18:15:04;4.57;;;1.30;;
48161;SDS011;33950;48.154;16.316;2022-09-20T18:17:52;3.17;;;1.42;;